sensor_id;sensor_type;location;lat;lon;timestamp;P1;durP1;ratioP1;P2;durP2;ratioP2
51862;SDS011;37900;52.996;6.278;2024-01-15T00:02:11;2.92;;;1.02;;
51862;SDS011;37900;52.996;6.278;2024-01-15T00:04:40;2.55;;;0.95;;
51862;SDS011;37900;52.996;6.278;2024-01-15T00:07:06;1.67;;;0.80;;
51862;SDS011;37900;52.996;6.278;2024-01-15T00:09:33;3.17;;;0.95;;
51862;SDS011;37900;52.996;6.278;2024-01-15T00:11:59;2.30;;;0.77;;
51862;SDS011;37900;52.996;6.278;2024-01-15T00:14:25;3.47;;;1.13;;
51862;SDS011;37900;52.996;6.278;2024-01-15T00:16:51;3.20;;;1.20;;
51862;SDS011;37900;52.996;6.278;2024-01-15T00:19:20;2.08;;;1.00;;
51862;SDS011;37900;52.996;6.278;2024-01-15T00:21:46;1.05;;;0.80;;
51862;SDS011;37900;52.996;6.278;2024-01-15T00:24:12;3.15;;;1.10;;
51862;SDS011;37900;52.996;6.278;2024-01-15T00:26:39;1.73;;;0.90;;
51862;SDS011;37900;52.996;6.278;2024-01-15T00:29:08;1.75;;;1.05;;
51862;SDS011;37900;52.996;6.278;2024-01-15T00:31:34;1.88;;;1.15;;
51862;SDS011;37900;52.996;6.278;2024-01-15T00:34:00;3.03;;;1.10;;
51862;SDS011;37900;52.996;6.278;2024-01-15T00:36:26;1.33;;;0.82;;
51862;SDS011;37900;52.996;6.278;2024-01-15T00:38:52;2.25;;;0.90;;
51862;SDS011;37900;52.996;6.278;2024-01-15T00:41:19;2.65;;;0.85;;
51862;SDS011;37900;52.996;6.278;2024-01-15T00:43:45;2.25;;;0.95;;
51862;SDS011;37900;52.996;6.278;2024-01-15T00:46:11;2.23;;;0.97;;
51862;SDS011;37900;52.996;6.278;2024-01-15T00:48:36;1.52;;;1.00;;
51862;SDS011;37900;52.996;6.278;2024-01-15T00:51:02;2.38;;;0.80;;
51862;SDS011;37900;52.996;6.278;2024-01-15T00:53:31;2.85;;;0.82;;
51862;SDS011;37900;52.996;6.278;2024-01-15T00:55:57;2.50;;;1.30;;
51862;SDS011;37900;52.996;6.278;2024-01-15T00:58:22;1.70;;;0.80;;
51862;SDS011;37900;52.996;6.278;2024-01-15T01:00:48;1.77;;;1.17;;
51862;SDS011;37900;52.996;6.278;2024-01-15T01:03:14;2.55;;;0.80;;
51862;SDS011;37900;52.996;6.278;2024-01-15T01:05:40;1.85;;;0.73;;
51862;SDS011;37900;52.996;6.278;2024-01-15T01:08:06;1.77;;;0.90;;
51862;SDS011;37900;52.996;6.278;2024-01-15T01:10:32;2.42;;;0.82;;
51862;SDS011;37900;52.996;6.278;2024-01-15T01:12:57;1.38;;;0.80;;
51862;SDS011;37900;52.996;6.278;2024-01-15T01:15:23;1.63;;;0.88;;
51862;SDS011;37900;52.996;6.278;2024-01-15T01:17:49;1.23;;;0.57;;
51862;SDS011;37900;52.996;6.278;2024-01-15T01:20:15;2.17;;;0.85;;
51862;SDS011;37900;52.996;6.278;2024-01-15T01:22:41;2.03;;;0.82;;
51862;SDS011;37900;52.996;6.278;2024-01-15T01:25:07;1.35;;;0.75;;
51862;SDS011;37900;52.996;6.278;2024-01-15T01:27:33;1.17;;;0.70;;
51862;SDS011;37900;52.996;6.278;2024-01-15T01:29:58;1.95;;;0.90;;
51862;SDS011;37900;52.996;6.278;2024-01-15T01:32:24;1.15;;;0.70;;
51862;SDS011;37900;52.996;6.278;2024-01-15T01:34:50;2.97;;;0.90;;
51862;SDS011;37900;52.996;6.278;2024-01-15T01:37:15;1.65;;;0.80;;
51862;SDS011;37900;52.996;6.278;2024-01-15T01:39:41;1.88;;;0.90;;
51862;SDS011;37900;52.996;6.278;2024-01-15T01:42:08;2.67;;;1.00;;
51862;SDS011;37900;52.996;6.278;2024-01-15T01:44:34;0.95;;;0.70;;
51862;SDS011;37900;52.996;6.278;2024-01-15T01:47:00;2.30;;;0.63;;
51862;SDS011;37900;52.996;6.278;2024-01-15T01:49:26;1.60;;;1.10;;
51862;SDS011;37900;52.996;6.278;2024-01-15T01:51:53;1.25;;;0.90;;
51862;SDS011;37900;52.996;6.278;2024-01-15T01:54:22;2.58;;;1.13;;
51862;SDS011;37900;52.996;6.278;2024-01-15T01:56:49;1.38;;;0.65;;
51862;SDS011;37900;52.996;6.278;2024-01-15T01:59:16;1.92;;;1.08;;
51862;SDS011;37900;52.996;6.278;2024-01-15T02:01:42;3.17;;;0.95;;
51862;SDS011;37900;52.996;6.278;2024-01-15T02:04:10;1.15;;;0.52;;
51862;SDS011;37900;52.996;6.278;2024-01-15T02:06:36;1.38;;;0.73;;
51862;SDS011;37900;52.996;6.278;2024-01-15T02:09:03;1.27;;;0.50;;
51862;SDS011;37900;52.996;6.278;2024-01-15T02:11:30;0.60;;;0.40;;
51862;SDS011;37900;52.996;6.278;2024-01-15T02:13:57;1.75;;;0.80;;
51862;SDS011;37900;52.996;6.278;2024-01-15T02:16:22;1.60;;;0.68;;
51862;SDS011;37900;52.996;6.278;2024-01-15T02:18:48;3.97;;;1.20;;
51862;SDS011;37900;52.996;6.278;2024-01-15T02:21:14;1.17;;;0.65;;
51862;SDS011;37900;52.996;6.278;2024-01-15T02:23:40;2.03;;;0.80;;
51862;SDS011;37900;52.996;6.278;2024-01-15T02:26:06;1.60;;;0.80;;
51862;SDS011;37900;52.996;6.278;2024-01-15T02:28:33;2.00;;;0.55;;
51862;SDS011;37900;52.996;6.278;2024-01-15T02:30:59;1.70;;;0.90;;
51862;SDS011;37900;52.996;6.278;2024-01-15T02:33:25;2.67;;;0.80;;
51862;SDS011;37900;52.996;6.278;2024-01-15T02:35:51;2.05;;;1.00;;
51862;SDS011;37900;52.996;6.278;2024-01-15T02:38:17;1.13;;;0.57;;
51862;SDS011;37900;52.996;6.278;2024-01-15T02:40:46;2.83;;;0.68;;
51862;SDS011;37900;52.996;6.278;2024-01-15T02:43:12;1.63;;;1.00;;
51862;SDS011;37900;52.996;6.278;2024-01-15T02:45:38;2.23;;;0.77;;
51862;SDS011;37900;52.996;6.278;2024-01-15T02:48:04;1.52;;;0.60;;
51862;SDS011;37900;52.996;6.278;2024-01-15T02:50:30;1.98;;;0.77;;
51862;SDS011;37900;52.996;6.278;2024-01-15T02:52:56;1.63;;;0.77;;
51862;SDS011;37900;52.996;6.278;2024-01-15T02:55:22;2.17;;;1.05;;
51862;SDS011;37900;52.996;6.278;2024-01-15T02:57:48;2.10;;;0.90;;
51862;SDS011;37900;52.996;6.278;2024-01-15T03:00:14;2.40;;;0.80;;
51862;SDS011;37900;52.996;6.278;2024-01-15T03:02:40;1.98;;;0.68;;
51862;SDS011;37900;52.996;6.278;2024-01-15T03:05:06;2.60;;;1.13;;
51862;SDS011;37900;52.996;6.278;2024-01-15T03:07:35;1.75;;;0.77;;
51862;SDS011;37900;52.996;6.278;2024-01-15T03:10:01;1.92;;;0.80;;
51862;SDS011;37900;52.996;6.278;2024-01-15T03:12:27;1.20;;;0.85;;
51862;SDS011;37900;52.996;6.278;2024-01-15T03:14:53;1.17;;;0.60;;
51862;SDS011;37900;52.996;6.278;2024-01-15T03:17:19;1.02;;;0.80;;
51862;SDS011;37900;52.996;6.278;2024-01-15T03:19:45;2.33;;;0.90;;
51862;SDS011;37900;52.996;6.278;2024-01-15T03:22:10;0.93;;;0.60;;
51862;SDS011;37900;52.996;6.278;2024-01-15T03:24:36;1.05;;;0.73;;
51862;SDS011;37900;52.996;6.278;2024-01-15T03:27:02;1.25;;;0.70;;
51862;SDS011;37900;52.996;6.278;2024-01-15T03:29:28;1.05;;;0.70;;
51862;SDS011;37900;52.996;6.278;2024-01-15T03:31:54;0.57;;;0.57;;
51862;SDS011;37900;52.996;6.278;2024-01-15T03:34:19;1.58;;;0.60;;
51862;SDS011;37900;52.996;6.278;2024-01-15T03:36:45;1.13;;;0.60;;
51862;SDS011;37900;52.996;6.278;2024-01-15T03:39:11;2.85;;;1.10;;
51862;SDS011;37900;52.996;6.278;2024-01-15T03:41:37;1.02;;;0.60;;
51862;SDS011;37900;52.996;6.278;2024-01-15T03:44:02;1.88;;;0.80;;
51862;SDS011;37900;52.996;6.278;2024-01-15T03:46:28;3.42;;;1.15;;
51862;SDS011;37900;52.996;6.278;2024-01-15T03:48:54;1.55;;;0.73;;
51862;SDS011;37900;52.996;6.278;2024-01-15T03:51:20;0.68;;;0.50;;
51862;SDS011;37900;52.996;6.278;2024-01-15T03:53:46;1.30;;;0.68;;
51862;SDS011;37900;52.996;6.278;2024-01-15T03:56:11;2.05;;;0.70;;
51862;SDS011;37900;52.996;6.278;2024-01-15T03:58:37;1.77;;;0.90;;
51862;SDS011;37900;52.996;6.278;2024-01-15T04:01:03;0.80;;;0.68;;
51862;SDS011;37900;52.996;6.278;2024-01-15T04:03:32;1.38;;;0.77;;
51862;SDS011;37900;52.996;6.278;2024-01-15T04:05:58;1.85;;;0.88;;
51862;SDS011;37900;52.996;6.278;2024-01-15T04:08:23;0.80;;;0.68;;
51862;SDS011;37900;52.996;6.278;2024-01-15T04:10:49;0.75;;;0.52;;
51862;SDS011;37900;52.996;6.278;2024-01-15T04:13:15;1.15;;;0.68;;
51862;SDS011;37900;52.996;6.278;2024-01-15T04:15:40;2.17;;;0.68;;
51862;SDS011;37900;52.996;6.278;2024-01-15T04:18:06;2.20;;;0.80;;
51862;SDS011;37900;52.996;6.278;2024-01-15T04:20:32;0.90;;;0.68;;
51862;SDS011;37900;52.996;6.278;2024-01-15T04:22:57;1.38;;;0.68;;
51862;SDS011;37900;52.996;6.278;2024-01-15T04:25:23;1.80;;;0.80;;
51862;SDS011;37900;52.996;6.278;2024-01-15T04:27:49;1.35;;;0.65;;
51862;SDS011;37900;52.996;6.278;2024-01-15T04:30:15;1.25;;;0.70;;
51862;SDS011;37900;52.996;6.278;2024-01-15T04:32:40;1.52;;;0.57;;
51862;SDS011;37900;52.996;6.278;2024-01-15T04:35:06;5.20;;;0.85;;
51862;SDS011;37900;52.996;6.278;2024-01-15T04:37:32;1.83;;;1.08;;
51862;SDS011;37900;52.996;6.278;2024-01-15T04:39:58;4.10;;;0.90;;
51862;SDS011;37900;52.996;6.278;2024-01-15T04:42:23;1.27;;;0.70;;
51862;SDS011;37900;52.996;6.278;2024-01-15T04:44:49;1.48;;;0.77;;
51862;SDS011;37900;52.996;6.278;2024-01-15T04:47:15;1.45;;;0.90;;
51862;SDS011;37900;52.996;6.278;2024-01-15T04:49:41;1.17;;;0.83;;
51862;SDS011;37900;52.996;6.278;2024-01-15T04:52:07;0.85;;;0.35;;
51862;SDS011;37900;52.996;6.278;2024-01-15T04:54:35;1.73;;;0.80;;
51862;SDS011;37900;52.996;6.278;2024-01-15T04:57:01;1.55;;;0.82;;
51862;SDS011;37900;52.996;6.278;2024-01-15T04:59:27;1.65;;;0.90;;
51862;SDS011;37900;52.996;6.278;2024-01-15T05:01:54;1.80;;;0.88;;
51862;SDS011;37900;52.996;6.278;2024-01-15T05:04:20;1.38;;;0.60;;
51862;SDS011;37900;52.996;6.278;2024-01-15T05:06:46;1.25;;;0.75;;
51862;SDS011;37900;52.996;6.278;2024-01-15T05:09:12;1.17;;;0.75;;
51862;SDS011;37900;52.996;6.278;2024-01-15T05:11:40;0.98;;;0.50;;
51862;SDS011;37900;52.996;6.278;2024-01-15T05:14:06;0.98;;;0.63;;
51862;SDS011;37900;52.996;6.278;2024-01-15T05:16:32;0.98;;;0.70;;
51862;SDS011;37900;52.996;6.278;2024-01-15T05:18:57;1.38;;;0.77;;
51862;SDS011;37900;52.996;6.278;2024-01-15T05:21:23;1.30;;;0.73;;
51862;SDS011;37900;52.996;6.278;2024-01-15T05:23:49;1.85;;;0.70;;
51862;SDS011;37900;52.996;6.278;2024-01-15T05:26:14;1.48;;;0.63;;
51862;SDS011;37900;52.996;6.278;2024-01-15T05:28:43;1.00;;;0.60;;
51862;SDS011;37900;52.996;6.278;2024-01-15T05:31:09;1.17;;;0.70;;
51862;SDS011;37900;52.996;6.278;2024-01-15T05:33:35;2.17;;;1.10;;
51862;SDS011;37900;52.996;6.278;2024-01-15T05:36:02;1.75;;;0.60;;
51862;SDS011;37900;52.996;6.278;2024-01-15T05:38:27;1.55;;;0.52;;
51862;SDS011;37900;52.996;6.278;2024-01-15T05:40:53;1.80;;;0.50;;
51862;SDS011;37900;52.996;6.278;2024-01-15T05:43:19;0.93;;;0.40;;
51862;SDS011;37900;52.996;6.278;2024-01-15T05:45:45;1.08;;;0.60;;
51862;SDS011;37900;52.996;6.278;2024-01-15T05:48:11;1.63;;;0.63;;
51862;SDS011;37900;52.996;6.278;2024-01-15T05:50:37;2.53;;;0.97;;
51862;SDS011;37900;52.996;6.278;2024-01-15T05:53:03;1.52;;;0.60;;
51862;SDS011;37900;52.996;6.278;2024-01-15T05:55:29;1.10;;;0.60;;
51862;SDS011;37900;52.996;6.278;2024-01-15T05:57:55;1.27;;;1.02;;
51862;SDS011;37900;52.996;6.278;2024-01-15T06:00:21;1.75;;;0.93;;
51862;SDS011;37900;52.996;6.278;2024-01-15T06:02:47;0.77;;;0.40;;
51862;SDS011;37900;52.996;6.278;2024-01-15T06:05:14;2.97;;;0.70;;
51862;SDS011;37900;52.996;6.278;2024-01-15T06:07:39;1.77;;;0.63;;
51862;SDS011;37900;52.996;6.278;2024-01-15T06:10:07;1.65;;;0.73;;
51862;SDS011;37900;52.996;6.278;2024-01-15T06:12:33;1.25;;;0.70;;
51862;SDS011;37900;52.996;6.278;2024-01-15T06:14:58;1.38;;;0.73;;
51862;SDS011;37900;52.996;6.278;2024-01-15T06:17:24;1.80;;;0.40;;
51862;SDS011;37900;52.996;6.278;2024-01-15T06:19:50;1.95;;;0.50;;
51862;SDS011;37900;52.996;6.278;2024-01-15T06:22:16;1.73;;;0.88;;
51862;SDS011;37900;52.996;6.278;2024-01-15T06:24:42;1.73;;;0.73;;
51862;SDS011;37900;52.996;6.278;2024-01-15T06:27:08;1.27;;;0.40;;
51862;SDS011;37900;52.996;6.278;2024-01-15T06:29:36;0.73;;;0.47;;
51862;SDS011;37900;52.996;6.278;2024-01-15T06:32:03;1.60;;;0.77;;
51862;SDS011;37900;52.996;6.278;2024-01-15T06:34:29;2.42;;;0.60;;
51862;SDS011;37900;52.996;6.278;2024-01-15T06:36:55;1.67;;;0.80;;
51862;SDS011;37900;52.996;6.278;2024-01-15T06:39:20;1.85;;;0.80;;
51862;SDS011;37900;52.996;6.278;2024-01-15T06:41:46;2.03;;;0.80;;
51862;SDS011;37900;52.996;6.278;2024-01-15T06:44:12;1.58;;;0.90;;
51862;SDS011;37900;52.996;6.278;2024-01-15T06:46:47;1.10;;;0.77;;
51862;SDS011;37900;52.996;6.278;2024-01-15T06:49:13;1.00;;;0.40;;
51862;SDS011;37900;52.996;6.278;2024-01-15T06:51:39;1.65;;;0.70;;
51862;SDS011;37900;52.996;6.278;2024-01-15T06:54:04;0.95;;;0.50;;
51862;SDS011;37900;52.996;6.278;2024-01-15T06:56:33;1.98;;;0.52;;
51862;SDS011;37900;52.996;6.278;2024-01-15T06:58:59;2.10;;;0.65;;
51862;SDS011;37900;52.996;6.278;2024-01-15T07:01:25;2.05;;;0.45;;
51862;SDS011;37900;52.996;6.278;2024-01-15T07:03:50;0.70;;;0.60;;
51862;SDS011;37900;52.996;6.278;2024-01-15T07:06:16;1.40;;;0.70;;
51862;SDS011;37900;52.996;6.278;2024-01-15T07:08:43;1.15;;;0.57;;
51862;SDS011;37900;52.996;6.278;2024-01-15T07:11:08;1.70;;;0.60;;
51862;SDS011;37900;52.996;6.278;2024-01-15T07:13:36;1.95;;;0.77;;
51862;SDS011;37900;52.996;6.278;2024-01-15T07:16:02;0.93;;;0.60;;
51862;SDS011;37900;52.996;6.278;2024-01-15T07:18:29;1.42;;;0.80;;
51862;SDS011;37900;52.996;6.278;2024-01-15T07:20:54;0.90;;;0.63;;
51862;SDS011;37900;52.996;6.278;2024-01-15T07:23:20;0.80;;;0.50;;
51862;SDS011;37900;52.996;6.278;2024-01-15T07:25:46;1.83;;;0.65;;
51862;SDS011;37900;52.996;6.278;2024-01-15T07:28:11;1.17;;;0.60;;
51862;SDS011;37900;52.996;6.278;2024-01-15T07:30:37;0.90;;;0.60;;
51862;SDS011;37900;52.996;6.278;2024-01-15T07:33:04;1.95;;;0.80;;
51862;SDS011;37900;52.996;6.278;2024-01-15T07:35:30;1.00;;;0.70;;
51862;SDS011;37900;52.996;6.278;2024-01-15T07:37:56;1.20;;;0.60;;
51862;SDS011;37900;52.996;6.278;2024-01-15T07:40:22;0.90;;;0.63;;
51862;SDS011;37900;52.996;6.278;2024-01-15T07:42:48;1.13;;;0.70;;
51862;SDS011;37900;52.996;6.278;2024-01-15T07:45:13;1.17;;;0.70;;
51862;SDS011;37900;52.996;6.278;2024-01-15T07:47:39;1.30;;;0.57;;
51862;SDS011;37900;52.996;6.278;2024-01-15T07:50:05;0.93;;;0.57;;
51862;SDS011;37900;52.996;6.278;2024-01-15T07:52:31;1.75;;;0.52;;
51862;SDS011;37900;52.996;6.278;2024-01-15T07:54:56;0.93;;;0.75;;
51862;SDS011;37900;52.996;6.278;2024-01-15T07:57:24;1.05;;;0.55;;
51862;SDS011;37900;52.996;6.278;2024-01-15T07:59:50;0.70;;;0.50;;
51862;SDS011;37900;52.996;6.278;2024-01-15T08:02:16;1.48;;;0.75;;
51862;SDS011;37900;52.996;6.278;2024-01-15T08:04:42;1.17;;;0.77;;
51862;SDS011;37900;52.996;6.278;2024-01-15T08:07:08;0.98;;;0.70;;
51862;SDS011;37900;52.996;6.278;2024-01-15T08:09:33;0.88;;;0.50;;
51862;SDS011;37900;52.996;6.278;2024-01-15T08:11:59;0.63;;;0.35;;
51862;SDS011;37900;52.996;6.278;2024-01-15T08:14:25;1.85;;;0.85;;
51862;SDS011;37900;52.996;6.278;2024-01-15T08:16:51;3.83;;;1.10;;
51862;SDS011;37900;52.996;6.278;2024-01-15T08:19:17;1.45;;;0.82;;
51862;SDS011;37900;52.996;6.278;2024-01-15T08:21:42;1.45;;;0.85;;
51862;SDS011;37900;52.996;6.278;2024-01-15T08:24:08;1.48;;;0.73;;
51862;SDS011;37900;52.996;6.278;2024-01-15T08:26:34;4.47;;;0.88;;
51862;SDS011;37900;52.996;6.278;2024-01-15T08:29:00;4.95;;;1.00;;
51862;SDS011;37900;52.996;6.278;2024-01-15T08:31:26;2.47;;;0.90;;
51862;SDS011;37900;52.996;6.278;2024-01-15T08:33:52;1.95;;;0.95;;
51862;SDS011;37900;52.996;6.278;2024-01-15T08:36:18;2.22;;;1.02;;
51862;SDS011;37900;52.996;6.278;2024-01-15T08:38:44;2.08;;;1.05;;
51862;SDS011;37900;52.996;6.278;2024-01-15T08:41:10;2.33;;;0.70;;
51862;SDS011;37900;52.996;6.278;2024-01-15T08:43:35;0.95;;;0.57;;
51862;SDS011;37900;52.996;6.278;2024-01-15T08:46:01;3.35;;;0.80;;
51862;SDS011;37900;52.996;6.278;2024-01-15T08:48:28;2.08;;;0.90;;
51862;SDS011;37900;52.996;6.278;2024-01-15T08:50:55;1.17;;;0.60;;
51862;SDS011;37900;52.996;6.278;2024-01-15T08:53:21;2.83;;;0.73;;
51862;SDS011;37900;52.996;6.278;2024-01-15T08:55:47;0.98;;;0.73;;
51862;SDS011;37900;52.996;6.278;2024-01-15T08:58:13;3.08;;;0.80;;
51862;SDS011;37900;52.996;6.278;2024-01-15T09:00:39;2.63;;;0.70;;
51862;SDS011;37900;52.996;6.278;2024-01-15T09:03:05;2.90;;;0.82;;
51862;SDS011;37900;52.996;6.278;2024-01-15T09:05:31;1.83;;;0.75;;
51862;SDS011;37900;52.996;6.278;2024-01-15T09:07:56;1.90;;;0.80;;
51862;SDS011;37900;52.996;6.278;2024-01-15T09:10:22;9.20;;;0.90;;
51862;SDS011;37900;52.996;6.278;2024-01-15T09:12:49;2.63;;;0.73;;
51862;SDS011;37900;52.996;6.278;2024-01-15T09:15:15;2.42;;;0.98;;
51862;SDS011;37900;52.996;6.278;2024-01-15T09:17:41;1.70;;;0.85;;
51862;SDS011;37900;52.996;6.278;2024-01-15T09:20:08;1.60;;;0.93;;
51862;SDS011;37900;52.996;6.278;2024-01-15T09:22:35;3.03;;;0.93;;
51862;SDS011;37900;52.996;6.278;2024-01-15T09:25:02;4.07;;;1.48;;
51862;SDS011;37900;52.996;6.278;2024-01-15T09:27:29;1.38;;;0.90;;
51862;SDS011;37900;52.996;6.278;2024-01-15T09:29:55;1.58;;;0.70;;
51862;SDS011;37900;52.996;6.278;2024-01-15T09:32:20;1.70;;;0.90;;
51862;SDS011;37900;52.996;6.278;2024-01-15T09:34:46;1.05;;;0.77;;
51862;SDS011;37900;52.996;6.278;2024-01-15T09:37:13;1.52;;;0.90;;
51862;SDS011;37900;52.996;6.278;2024-01-15T09:42:05;3.83;;;1.20;;
51862;SDS011;37900;52.996;6.278;2024-01-15T09:44:32;1.83;;;1.00;;
51862;SDS011;37900;52.996;6.278;2024-01-15T09:46:58;1.45;;;1.00;;
51862;SDS011;37900;52.996;6.278;2024-01-15T09:49:24;2.22;;;1.00;;
51862;SDS011;37900;52.996;6.278;2024-01-15T09:51:50;3.08;;;0.73;;
51862;SDS011;37900;52.996;6.278;2024-01-15T09:54:16;2.20;;;1.15;;
51862;SDS011;37900;52.996;6.278;2024-01-15T09:56:46;4.07;;;1.45;;
51862;SDS011;37900;52.996;6.278;2024-01-15T09:59:21;1.60;;;1.15;;
51862;SDS011;37900;52.996;6.278;2024-01-15T10:01:47;2.35;;;1.17;;
51862;SDS011;37900;52.996;6.278;2024-01-15T10:04:15;1.88;;;0.90;;
51862;SDS011;37900;52.996;6.278;2024-01-15T10:06:43;3.10;;;1.10;;
51862;SDS011;37900;52.996;6.278;2024-01-15T10:09:11;2.63;;;1.02;;
51862;SDS011;37900;52.996;6.278;2024-01-15T10:11:40;2.65;;;1.30;;
51862;SDS011;37900;52.996;6.278;2024-01-15T10:14:07;2.50;;;1.30;;
51862;SDS011;37900;52.996;6.278;2024-01-15T10:16:40;3.13;;;1.05;;
51862;SDS011;37900;52.996;6.278;2024-01-15T10:19:07;1.50;;;0.93;;
51862;SDS011;37900;52.996;6.278;2024-01-15T10:21:33;1.90;;;1.00;;
51862;SDS011;37900;52.996;6.278;2024-01-15T10:24:03;1.25;;;0.85;;
51862;SDS011;37900;52.996;6.278;2024-01-15T10:26:30;3.30;;;1.40;;
51862;SDS011;37900;52.996;6.278;2024-01-15T10:28:56;2.95;;;1.30;;
51862;SDS011;37900;52.996;6.278;2024-01-15T10:31:23;2.47;;;1.23;;
51862;SDS011;37900;52.996;6.278;2024-01-15T10:33:50;2.55;;;1.02;;
51862;SDS011;37900;52.996;6.278;2024-01-15T10:36:16;1.83;;;1.08;;
51862;SDS011;37900;52.996;6.278;2024-01-15T10:38:45;2.92;;;1.08;;
51862;SDS011;37900;52.996;6.278;2024-01-15T10:41:11;1.83;;;1.10;;
51862;SDS011;37900;52.996;6.278;2024-01-15T10:43:38;2.65;;;1.10;;
51862;SDS011;37900;52.996;6.278;2024-01-15T10:46:06;1.95;;;1.02;;
51862;SDS011;37900;52.996;6.278;2024-01-15T10:48:33;2.35;;;1.08;;
51862;SDS011;37900;52.996;6.278;2024-01-15T10:51:00;1.95;;;1.00;;
51862;SDS011;37900;52.996;6.278;2024-01-15T10:53:33;3.47;;;1.35;;
51862;SDS011;37900;52.996;6.278;2024-01-15T10:56:01;2.83;;;1.05;;
51862;SDS011;37900;52.996;6.278;2024-01-15T10:58:28;1.60;;;1.00;;
51862;SDS011;37900;52.996;6.278;2024-01-15T11:00:58;1.73;;;1.10;;
51862;SDS011;37900;52.996;6.278;2024-01-15T11:03:24;3.53;;;1.10;;
51862;SDS011;37900;52.996;6.278;2024-01-15T11:05:53;2.10;;;1.05;;
51862;SDS011;37900;52.996;6.278;2024-01-15T11:08:19;1.75;;;0.93;;
51862;SDS011;37900;52.996;6.278;2024-01-15T11:10:47;1.58;;;0.90;;
51862;SDS011;37900;52.996;6.278;2024-01-15T11:13:20;2.22;;;0.80;;
51862;SDS011;37900;52.996;6.278;2024-01-15T11:16:02;2.22;;;1.00;;
51862;SDS011;37900;52.996;6.278;2024-01-15T11:23:55;2.13;;;0.77;;
51862;SDS011;37900;52.996;6.278;2024-01-15T11:26:29;1.50;;;1.20;;
51862;SDS011;37900;52.996;6.278;2024-01-15T11:28:59;2.80;;;0.80;;
51862;SDS011;37900;52.996;6.278;2024-01-15T11:41:52;1.67;;;1.10;;
51862;SDS011;37900;52.996;6.278;2024-01-15T11:44:25;2.90;;;1.00;;
51862;SDS011;37900;52.996;6.278;2024-01-15T11:47:13;1.80;;;0.90;;
51862;SDS011;37900;52.996;6.278;2024-01-15T11:52:22;3.05;;;1.10;;
51862;SDS011;37900;52.996;6.278;2024-01-15T11:57:40;1.58;;;0.80;;
51862;SDS011;37900;52.996;6.278;2024-01-15T12:00:10;5.38;;;1.63;;
51862;SDS011;37900;52.996;6.278;2024-01-15T12:02:40;6.05;;;1.85;;
51862;SDS011;37900;52.996;6.278;2024-01-15T12:05:11;1.88;;;1.08;;
51862;SDS011;37900;52.996;6.278;2024-01-15T12:07:42;4.38;;;1.20;;
51862;SDS011;37900;52.996;6.278;2024-01-15T12:10:12;4.05;;;1.25;;
51862;SDS011;37900;52.996;6.278;2024-01-15T12:12:58;2.15;;;0.70;;
51862;SDS011;37900;52.996;6.278;2024-01-15T12:15:34;3.03;;;0.95;;
51862;SDS011;37900;52.996;6.278;2024-01-15T12:18:01;1.58;;;0.88;;
51862;SDS011;37900;52.996;6.278;2024-01-15T12:20:28;2.67;;;1.33;;
51862;SDS011;37900;52.996;6.278;2024-01-15T12:22:54;2.85;;;1.20;;
51862;SDS011;37900;52.996;6.278;2024-01-15T12:25:24;1.80;;;0.90;;
51862;SDS011;37900;52.996;6.278;2024-01-15T12:27:52;2.97;;;0.95;;
51862;SDS011;37900;52.996;6.278;2024-01-15T12:30:19;2.17;;;1.30;;
51862;SDS011;37900;52.996;6.278;2024-01-15T12:32:44;1.95;;;1.13;;
51862;SDS011;37900;52.996;6.278;2024-01-15T12:35:12;1.48;;;0.77;;
51862;SDS011;37900;52.996;6.278;2024-01-15T12:37:41;4.18;;;1.65;;
51862;SDS011;37900;52.996;6.278;2024-01-15T12:40:09;2.92;;;1.10;;
51862;SDS011;37900;52.996;6.278;2024-01-15T12:42:41;3.13;;;1.00;;
51862;SDS011;37900;52.996;6.278;2024-01-15T12:45:08;2.40;;;1.08;;
51862;SDS011;37900;52.996;6.278;2024-01-15T12:47:38;3.20;;;1.00;;
51862;SDS011;37900;52.996;6.278;2024-01-15T12:50:08;2.08;;;1.40;;
51862;SDS011;37900;52.996;6.278;2024-01-15T12:52:35;1.77;;;0.80;;
51862;SDS011;37900;52.996;6.278;2024-01-15T12:57:32;1.50;;;1.00;;
51862;SDS011;37900;52.996;6.278;2024-01-15T12:59:58;3.70;;;1.95;;
51862;SDS011;37900;52.996;6.278;2024-01-15T13:02:24;5.47;;;2.60;;
51862;SDS011;37900;52.996;6.278;2024-01-15T13:04:49;9.75;;;2.78;;
51862;SDS011;37900;52.996;6.278;2024-01-15T13:07:16;6.22;;;2.88;;
51862;SDS011;37900;52.996;6.278;2024-01-15T13:09:42;11.27;;;2.88;;
51862;SDS011;37900;52.996;6.278;2024-01-15T13:12:08;5.90;;;2.85;;
51862;SDS011;37900;52.996;6.278;2024-01-15T13:14:34;6.53;;;2.80;;
51862;SDS011;37900;52.996;6.278;2024-01-15T13:17:01;7.32;;;2.78;;
51862;SDS011;37900;52.996;6.278;2024-01-15T13:19:28;5.20;;;3.10;;
51862;SDS011;37900;52.996;6.278;2024-01-15T13:21:54;6.05;;;2.60;;
51862;SDS011;37900;52.996;6.278;2024-01-15T13:24:21;9.32;;;3.08;;
51862;SDS011;37900;52.996;6.278;2024-01-15T13:26:47;7.13;;;2.75;;
51862;SDS011;37900;52.996;6.278;2024-01-15T13:29:13;8.18;;;3.25;;
51862;SDS011;37900;52.996;6.278;2024-01-15T13:31:39;5.15;;;2.45;;
51862;SDS011;37900;52.996;6.278;2024-01-15T13:34:05;6.45;;;2.45;;
51862;SDS011;37900;52.996;6.278;2024-01-15T13:36:32;7.47;;;2.78;;
51862;SDS011;37900;52.996;6.278;2024-01-15T13:38:58;5.82;;;2.65;;
51862;SDS011;37900;52.996;6.278;2024-01-15T13:41:24;5.53;;;2.25;;
51862;SDS011;37900;52.996;6.278;2024-01-15T13:43:52;6.15;;;2.80;;
51862;SDS011;37900;52.996;6.278;2024-01-15T13:46:19;6.75;;;2.55;;
51862;SDS011;37900;52.996;6.278;2024-01-15T13:48:48;7.05;;;2.53;;
51862;SDS011;37900;52.996;6.278;2024-01-15T13:51:14;8.20;;;2.63;;
51862;SDS011;37900;52.996;6.278;2024-01-15T13:53:40;4.68;;;2.10;;
51862;SDS011;37900;52.996;6.278;2024-01-15T13:56:06;5.53;;;2.20;;
51862;SDS011;37900;52.996;6.278;2024-01-15T13:58:33;8.77;;;2.22;;
51862;SDS011;37900;52.996;6.278;2024-01-15T14:00:59;4.22;;;2.00;;
51862;SDS011;37900;52.996;6.278;2024-01-15T14:03:25;5.47;;;2.38;;
51862;SDS011;37900;52.996;6.278;2024-01-15T14:05:51;4.95;;;2.60;;
51862;SDS011;37900;52.996;6.278;2024-01-15T14:08:17;4.43;;;2.55;;
51862;SDS011;37900;52.996;6.278;2024-01-15T14:10:43;4.95;;;2.45;;
51862;SDS011;37900;52.996;6.278;2024-01-15T14:13:10;6.13;;;2.17;;
51862;SDS011;37900;52.996;6.278;2024-01-15T14:15:35;3.65;;;2.03;;
51862;SDS011;37900;52.996;6.278;2024-01-15T14:18:02;3.90;;;2.55;;
51862;SDS011;37900;52.996;6.278;2024-01-15T14:20:28;3.10;;;1.90;;
51862;SDS011;37900;52.996;6.278;2024-01-15T14:22:53;6.03;;;2.03;;
51862;SDS011;37900;52.996;6.278;2024-01-15T14:25:22;3.72;;;2.08;;
51862;SDS011;37900;52.996;6.278;2024-01-15T14:27:49;9.15;;;2.00;;
51862;SDS011;37900;52.996;6.278;2024-01-15T14:30:15;7.38;;;2.03;;
51862;SDS011;37900;52.996;6.278;2024-01-15T14:32:44;4.43;;;2.00;;
51862;SDS011;37900;52.996;6.278;2024-01-15T14:35:10;4.32;;;2.35;;
51862;SDS011;37900;52.996;6.278;2024-01-15T14:37:39;4.78;;;2.00;;
51862;SDS011;37900;52.996;6.278;2024-01-15T14:40:05;4.10;;;1.58;;
51862;SDS011;37900;52.996;6.278;2024-01-15T14:42:36;4.35;;;1.63;;
51862;SDS011;37900;52.996;6.278;2024-01-15T14:45:02;4.90;;;2.10;;
51862;SDS011;37900;52.996;6.278;2024-01-15T14:47:30;4.15;;;1.98;;
51862;SDS011;37900;52.996;6.278;2024-01-15T14:49:56;5.70;;;1.50;;
51862;SDS011;37900;52.996;6.278;2024-01-15T14:52:22;4.68;;;1.88;;
51862;SDS011;37900;52.996;6.278;2024-01-15T14:54:48;5.15;;;1.88;;
51862;SDS011;37900;52.996;6.278;2024-01-15T14:57:14;4.35;;;2.05;;
51862;SDS011;37900;52.996;6.278;2024-01-15T14:59:40;3.10;;;1.42;;
51862;SDS011;37900;52.996;6.278;2024-01-15T15:02:06;5.10;;;1.40;;
51862;SDS011;37900;52.996;6.278;2024-01-15T15:04:32;4.07;;;1.42;;
51862;SDS011;37900;52.996;6.278;2024-01-15T15:06:58;4.00;;;1.75;;
51862;SDS011;37900;52.996;6.278;2024-01-15T15:09:24;3.35;;;1.83;;
51862;SDS011;37900;52.996;6.278;2024-01-15T15:11:49;3.63;;;1.80;;